Time;durP1;ratioP1;P1;durP2;ratioP2;P2;SDS_P1;SDS_P2;PMS_P1;PMS_P2;Temp;Humidity;BMP_temperature;BMP_pressure;BME280_temperature;BME280_humidity;BME280_pressure;Samples;Min_cycle;Max_cycle;Signal;HPM_P1;HPM_P2
2021/10/17 00:02:18;;;;;;;1.57;1.20;;;;;;;;;;5032625;28;20451;-75
2021/10/17 00:04:44;;;;;;;1.25;1.15;;;;;;;;;;5032488;28;20425;-76
2021/10/17 00:07:10;;;;;;;0.83;0.83;;;;;;;;;;5031514;28;20804;-76
2021/10/17 00:09:37;;;;;;;0.95;0.95;;;;;;;;;;5031501;28;20409;-76
2021/10/17 00:12:04;;;;;;;1.15;1.05;;;;;;;;;;5031107;28;20190;-76
2021/10/17 00:14:30;;;;;;;1.50;1.40;;;;;;;;;;5032290;28;20746;-76
2021/10/17 00:16:56;;;;;;;1.00;0.90;;;;;;;;;;5031549;28;20289;-75
2021/10/17 00:19:22;;;;;;;1.83;1.73;;;;;;;;;;5040446;28;20929;-76
2021/10/17 00:21:48;;;;;;;0.80;0.70;;;;;;;;;;5032030;28;20408;-76
2021/10/17 00:24:14;;;;;;;1.30;1.20;;;;;;;;;;5031883;28;20847;-75
2021/10/17 00:26:40;;;;;;;0.80;0.70;;;;;;;;;;5008196;28;20206;-75
2021/10/17 00:29:06;;;;;;;0.83;0.83;;;;;;;;;;5032218;28;20182;-75
2021/10/17 00:31:32;;;;;;;1.15;1.05;;;;;;;;;;5032317;28;20941;-75
2021/10/17 00:33:58;;;;;;;1.10;1.00;;;;;;;;;;5032155;28;20201;-75
2021/10/17 00:36:24;;;;;;;0.80;0.70;;;;;;;;;;5031048;28;20166;-75
2021/10/17 00:38:50;;;;;;;1.10;1.00;;;;;;;;;;5031746;28;20970;-75
2021/10/17 00:41:17;;;;;;;0.80;0.80;;;;;;;;;;5030001;28;20194;-75
2021/10/17 00:43:43;;;;;;;0.80;0.80;;;;;;;;;;5032041;28;20854;-75
2021/10/17 00:46:22;;;;;;;1.10;1.00;;;;;;;;;;5031654;28;20170;-75
2021/10/17 00:48:49;;;;;;;1.25;1.13;;;;;;;;;;5039265;28;20409;-75
2021/10/17 00:51:15;;;;;;;1.10;1.00;;;;;;;;;;5051695;28;20185;-75
2021/10/17 00:53:41;;;;;;;0.80;0.70;;;;;;;;;;5051666;28;20243;-75
2021/10/17 00:56:08;;;;;;;0.80;0.75;;;;;;;;;;5032898;28;20201;-75
2021/10/17 00:58:34;;;;;;;0.80;0.70;;;;;;;;;;5032307;28;20205;-75
2021/10/17 01:01:00;;;;;;;1.13;1.02;;;;;;;;;;5031945;28;20170;-75
2021/10/17 01:03:26;;;;;;;0.80;0.70;;;;;;;;;;5031483;28;20683;-75
2021/10/17 01:05:53;;;;;;;1.08;0.98;;;;;;;;;;5030956;28;20531;-75
2021/10/17 01:08:19;;;;;;;1.10;1.02;;;;;;;;;;5031685;28;20198;-75
2021/10/17 01:10:46;;;;;;;1.00;0.90;;;;;;;;;;5032405;28;20272;-75
2021/10/17 01:13:22;;;;;;;0.80;0.70;;;;;;;;;;5035580;28;20277;-75
2021/10/17 01:15:52;;;;;;;0.80;0.80;;;;;;;;;;5035194;28;20239;-75
2021/10/17 01:18:19;;;;;;;0.80;0.60;;;;;;;;;;5043444;28;20212;-75
2021/10/17 01:20:45;;;;;;;1.27;0.95;;;;;;;;;;5035612;28;20249;-75
2021/10/17 01:23:11;;;;;;;1.27;1.03;;;;;;;;;;5035807;28;20257;-75
2021/10/17 01:25:37;;;;;;;1.00;0.80;;;;;;;;;;5033234;28;20432;-75
2021/10/17 01:28:03;;;;;;;0.80;0.80;;;;;;;;;;5034793;28;20205;-75
2021/10/17 01:30:33;;;;;;;1.15;1.05;;;;;;;;;;5035540;28;20780;-75
2021/10/17 01:32:59;;;;;;;2.03;1.90;;;;;;;;;;5035037;28;20577;-75
2021/10/17 01:35:25;;;;;;;6.20;1.13;;;;;;;;;;5035623;28;20171;-75
2021/10/17 01:37:50;;;;;;;1.33;1.20;;;;;;;;;;5034664;28;20424;-75
2021/10/17 01:40:16;;;;;;;2.07;1.20;;;;;;;;;;5032442;28;20557;-75
2021/10/17 01:42:42;;;;;;;1.33;1.23;;;;;;;;;;5035143;28;20499;-75
2021/10/17 01:45:09;;;;;;;1.23;1.13;;;;;;;;;;5035093;28;20416;-75
2021/10/17 01:47:35;;;;;;;1.15;1.05;;;;;;;;;;5041540;28;20471;-75
2021/10/17 01:50:01;;;;;;;0.80;0.60;;;;;;;;;;5035673;28;20178;-75
2021/10/17 01:52:27;;;;;;;0.80;0.80;;;;;;;;;;5035049;28;20174;-75
2021/10/17 01:54:53;;;;;;;1.10;1.00;;;;;;;;;;5032743;28;20494;-75
2021/10/17 01:57:19;;;;;;;1.38;1.23;;;;;;;;;;5034135;28;21029;-75
2021/10/17 01:59:45;;;;;;;1.03;0.90;;;;;;;;;;5034879;28;20166;-75
2021/10/17 02:02:11;;;;;;;0.80;0.70;;;;;;;;;;5034723;28;20983;-75
2021/10/17 02:04:37;;;;;;;0.80;0.70;;;;;;;;;;5034784;28;20416;-75
2021/10/17 02:07:03;;;;;;;4.50;2.10;;;;;;;;;;5033921;28;20530;-75
2021/10/17 02:09:28;;;;;;;1.00;1.00;;;;;;;;;;5031708;28;21002;-75
2021/10/17 02:11:54;;;;;;;1.60;1.50;;;;;;;;;;5034809;28;20174;-75
2021/10/17 02:14:22;;;;;;;2.13;1.43;;;;;;;;;;5034464;28;20982;-75
2021/10/17 02:16:48;;;;;;;0.80;0.80;;;;;;;;;;5034463;28;20971;-75
2021/10/17 02:19:14;;;;;;;2.57;2.37;;;;;;;;;;5046055;28;20178;-75
2021/10/17 02:21:40;;;;;;;15.10;3.43;;;;;;;;;;5054240;28;20410;-75
2021/10/17 02:24:10;;;;;;;1.10;1.00;;;;;;;;;;5042946;28;20532;-75
2021/10/17 02:26:36;;;;;;;0.80;0.70;;;;;;;;;;5033516;28;20960;-74
2021/10/17 02:29:02;;;;;;;1.10;1.00;;;;;;;;;;5034220;28;20260;-75
2021/10/17 02:31:28;;;;;;;0.80;0.73;;;;;;;;;;5034104;28;20409;-75
2021/10/17 02:33:54;;;;;;;0.80;0.70;;;;;;;;;;5034119;28;20761;-75
2021/10/17 02:36:20;;;;;;;1.67;1.57;;;;;;;;;;5033363;28;20444;-75
2021/10/17 02:38:46;;;;;;;0.80;0.70;;;;;;;;;;5016222;28;20441;-75
2021/10/17 02:41:12;;;;;;;1.10;1.00;;;;;;;;;;5032467;28;20440;-75
2021/10/17 02:43:38;;;;;;;1.00;0.90;;;;;;;;;;5034020;28;20506;-75
2021/10/17 02:46:04;;;;;;;0.80;0.80;;;;;;;;;;5033100;28;20178;-75
2021/10/17 02:49:02;;;;;;;0.80;0.60;;;;;;;;;;5049074;22;20240;-74
2021/10/17 02:51:37;;;;;;;0.90;0.80;;;;;;;;;;4989788;28;20421;-74
2021/10/17 02:54:19;;;;;;;1.17;1.08;;;;;;;;;;5013422;28;20206;-74
2021/10/17 02:57:37;;;;;;;;;;;;;;;;;;;;;
2021/10/17 02:59:52;;;;;;;0.80;0.80;;;;;;;;;;4997553;28;20689;-75
2021/10/17 03:02:41;;;;;;;5.15;3.15;;;;;;;;;;5007175;28;20689;-74
2021/10/17 03:05:21;;;;;;;0.80;0.80;;;;;;;;;;5033562;28;20194;-75
2021/10/17 03:07:59;;;;;;;0.80;0.70;;;;;;;;;;5030505;28;20629;-75
2021/10/17 03:10:37;;;;;;;1.48;1.38;;;;;;;;;;5033343;28;20529;-75
2021/10/17 03:13:09;;;;;;;0.80;0.77;;;;;;;;;;5033466;28;20225;-75
2021/10/17 03:15:46;;;;;;;1.75;1.65;;;;;;;;;;5033270;28;20616;-75
2021/10/17 03:21:22;;;;;;;1.52;1.42;;;;;;;;;;5030123;28;20216;-74
2021/10/17 03:23:51;;;;;;;1.70;1.60;;;;;;;;;;5032885;28;20178;-74
2021/10/17 03:26:27;;;;;;;0.80;0.80;;;;;;;;;;5032543;28;20190;-75
2021/10/17 03:29:31;;;;;;;1.00;0.90;;;;;;;;;;5022304;28;20221;-75
2021/10/17 03:32:11;;;;;;;0.80;0.80;;;;;;;;;;5029873;28;20193;-75
2021/10/17 03:34:45;;;;;;;0.80;0.77;;;;;;;;;;5033151;28;20293;-74
2021/10/17 03:40:22;;;;;;;1.55;1.40;;;;;;;;;;5030956;28;20190;-74
2021/10/17 03:42:57;;;;;;;0.80;0.70;;;;;;;;;;5032835;28;20174;-75
2021/10/17 03:45:25;;;;;;;1.42;1.33;;;;;;;;;;5032856;28;20207;-75
2021/10/17 03:47:52;;;;;;;1.05;0.95;;;;;;;;;;5039901;28;20225;-75
2021/10/17 03:50:39;;;;;;;;;;;;;;;;;;;;;
2021/10/17 03:53:11;;;;;;;0.80;0.70;;;;;;;;;;5037123;28;20207;-75
2021/10/17 03:55:37;;;;;;;2.30;1.33;;;;;;;;;;5052444;28;20174;-74
2021/10/17 03:58:06;;;;;;;0.80;0.80;;;;;;;;;;5044634;28;20212;-74
2021/10/17 04:00:40;;;;;;;1.02;0.95;;;;;;;;;;5032743;28;20177;-74
2021/10/17 04:03:06;;;;;;;1.52;1.42;;;;;;;;;;5033537;28;20177;-75
2021/10/17 04:05:35;;;;;;;2.72;2.53;;;;;;;;;;5033012;28;20220;-75
2021/10/17 04:08:14;;;;;;;0.90;0.80;;;;;;;;;;5032190;28;20201;-74
2021/10/17 04:10:52;;;;;;;0.80;0.70;;;;;;;;;;5033279;28;20181;-75
2021/10/17 04:13:18;;;;;;;0.98;0.88;;;;;;;;;;5032343;28;20233;-75
2021/10/17 04:15:47;;;;;;;2.22;1.33;;;;;;;;;;5032135;28;20198;-74
2021/10/17 04:18:13;;;;;;;0.80;0.63;;;;;;;;;;5040178;28;20237;-75
2021/10/17 04:20:44;;;;;;;1.10;1.02;;;;;;;;;;5032425;28;20181;-74
2021/10/17 04:23:12;;;;;;;2.40;2.00;;;;;;;;;;5032306;28;20180;-74
2021/10/17 04:25:38;;;;;;;0.80;0.70;;;;;;;;;;5032062;28;20174;-74
2021/10/17 04:28:04;;;;;;;0.80;0.70;;;;;;;;;;5029364;28;20613;-75
2021/10/17 04:30:30;;;;;;;0.80;0.80;;;;;;;;;;5032098;28;20183;-74
2021/10/17 04:33:02;;;;;;;0.80;0.70;;;;;;;;;;5032064;28;20304;-75
2021/10/17 04:35:33;;;;;;;1.10;1.00;;;;;;;;;;5032179;28;20518;-74
2021/10/17 04:38:06;;;;;;;0.80;0.77;;;;;;;;;;5031325;28;20189;-75
2021/10/17 04:40:36;;;;;;;0.88;0.88;;;;;;;;;;5031740;28;20331;-75
2021/10/17 04:43:32;;;;;;;1.05;0.95;;;;;;;;;;5032078;28;20189;-75
2021/10/17 04:46:05;;;;;;;0.80;0.70;;;;;;;;;;5031097;28;20248;-74
2021/10/17 04:48:34;;;;;;;0.80;0.70;;;;;;;;;;5038583;28;20260;-76
2021/10/17 04:51:03;;;;;;;1.00;0.90;;;;;;;;;;5032497;28;20205;-75
2021/10/17 04:53:29;;;;;;;0.80;0.75;;;;;;;;;;5031933;28;20225;-75
2021/10/17 04:55:55;;;;;;;0.80;0.80;;;;;;;;;;5030754;28;20179;-75
2021/10/17 04:58:33;;;;;;;1.33;0.98;;;;;;;;;;5030639;28;20202;-76
2021/10/17 05:01:09;;;;;;;1.50;1.27;;;;;;;;;;5031432;28;20193;-76
2021/10/17 05:03:39;;;;;;;1.00;0.90;;;;;;;;;;5031779;28;20170;-75
2021/10/17 05:06:12;;;;;;;1.63;1.52;;;;;;;;;;5030895;28;20182;-75
2021/10/17 05:08:46;;;;;;;1.13;1.02;;;;;;;;;;5031705;28;20285;-75
2021/10/17 05:11:20;;;;;;;0.80;0.70;;;;;;;;;;5031267;28;20292;-75
2021/10/17 05:14:21;;;;;;;1.25;1.17;;;;;;;;;;5031447;28;20208;-76
2021/10/17 05:16:50;;;;;;;3.83;3.63;;;;;;;;;;5031818;28;20708;-75
2021/10/17 05:19:42;;;;;;;0.93;0.88;;;;;;;;;;5043229;28;20185;-75
2021/10/17 05:22:08;;;;;;;1.65;1.50;;;;;;;;;;5051452;28;20166;-75
2021/10/17 05:24:36;;;;;;;1.65;1.35;;;;;;;;;;5051171;28;20185;-76
2021/10/17 05:27:02;;;;;;;1.60;1.33;;;;;;;;;;5050163;28;20446;-74
2021/10/17 05:29:28;;;;;;;1.43;1.33;;;;;;;;;;5032193;28;20196;-75
2021/10/17 05:31:54;;;;;;;0.80;0.70;;;;;;;;;;5031777;28;20413;-74
2021/10/17 05:34:20;;;;;;;0.80;0.60;;;;;;;;;;5031353;28;20455;-74
2021/10/17 05:36:46;;;;;;;0.80;0.60;;;;;;;;;;5030508;28;20194;-73
2021/10/17 05:39:12;;;;;;;1.17;1.07;;;;;;;;;;5030991;28;20409;-74
2021/10/17 05:41:38;;;;;;;0.85;0.85;;;;;;;;;;5031293;28;20487;-73
2021/10/17 05:44:04;;;;;;;0.80;0.70;;;;;;;;;;5029298;28;20197;-74
2021/10/17 05:46:30;;;;;;;0.80;0.70;;;;;;;;;;5030347;28;20179;-75
2021/10/17 05:48:56;;;;;;;1.43;1.33;;;;;;;;;;5041423;28;20603;-75
2021/10/17 05:51:22;;;;;;;2.23;1.20;;;;;;;;;;5051085;28;20467;-73
2021/10/17 05:53:47;;;;;;;1.00;0.90;;;;;;;;;;5050815;28;20451;-74
2021/10/17 05:56:14;;;;;;;0.90;0.80;;;;;;;;;;5052568;28;20899;-73
2021/10/17 05:58:39;;;;;;;0.80;0.70;;;;;;;;;;5054664;28;20420;-73
2021/10/17 06:01:05;;;;;;;1.27;1.17;;;;;;;;;;5054692;28;20200;-74
2021/10/17 06:03:31;;;;;;;0.80;0.63;;;;;;;;;;5054582;28;20772;-73
2021/10/17 06:06:01;;;;;;;3.00;1.87;;;;;;;;;;5033063;28;20835;-72
2021/10/17 06:08:27;;;;;;;1.10;1.00;;;;;;;;;;5034715;28;20806;-73
2021/10/17 06:10:54;;;;;;;0.82;0.75;;;;;;;;;;5034370;28;20561;-73
2021/10/17 06:13:20;;;;;;;1.10;1.00;;;;;;;;;;5034543;28;20198;-72
2021/10/17 06:15:46;;;;;;;0.80;0.70;;;;;;;;;;5033955;28;20182;-73
2021/10/17 06:18:12;;;;;;;1.23;1.13;;;;;;;;;;5042156;28;20206;-74
2021/10/17 06:20:38;;;;;;;3.00;1.80;;;;;;;;;;5050393;28;20896;-73
2021/10/17 06:23:04;;;;;;;1.30;1.20;;;;;;;;;;5054171;28;20404;-73
2021/10/17 06:25:30;;;;;;;0.90;0.73;;;;;;;;;;5053883;28;20412;-73
2021/10/17 06:27:56;;;;;;;1.10;1.00;;;;;;;;;;5053623;28;20427;-73
2021/10/17 06:30:22;;;;;;;1.02;0.93;;;;;;;;;;5046513;28;20210;-73
2021/10/17 06:32:48;;;;;;;0.80;0.60;;;;;;;;;;5033867;28;20185;-73
2021/10/17 06:35:14;;;;;;;2.80;2.67;;;;;;;;;;5034223;28;20693;-74
2021/10/17 06:37:41;;;;;;;1.60;1.50;;;;;;;;;;5033003;28;20429;-74
2021/10/17 06:40:07;;;;;;;0.80;0.68;;;;;;;;;;5033891;28;20228;-73
2021/10/17 06:42:33;;;;;;;0.80;0.70;;;;;;;;;;5033984;28;20189;-73
2021/10/17 06:44:59;;;;;;;0.80;0.80;;;;;;;;;;5034117;28;20174;-73
2021/10/17 06:47:25;;;;;;;0.80;0.80;;;;;;;;;;5038821;28;20224;-73
2021/10/17 06:49:51;;;;;;;0.80;0.70;;;;;;;;;;5027630;28;20219;-73
2021/10/17 06:52:17;;;;;;;1.10;1.00;;;;;;;;;;5053603;28;20212;-73
2021/10/17 06:54:43;;;;;;;1.17;1.08;;;;;;;;;;5035092;28;20468;-73
2021/10/17 06:57:09;;;;;;;0.80;0.70;;;;;;;;;;5032760;28;20198;-73
2021/10/17 06:59:35;;;;;;;1.40;1.30;;;;;;;;;;5033705;28;20405;-73
2021/10/17 07:02:01;;;;;;;1.03;0.90;;;;;;;;;;5033579;28;20416;-74
2021/10/17 07:04:27;;;;;;;2.87;2.70;;;;;;;;;;5033595;28;20410;-73
2021/10/17 07:06:53;;;;;;;0.80;0.70;;;;;;;;;;5031794;28;20852;-73
2021/10/17 07:09:19;;;;;;;2.20;2.10;;;;;;;;;;5033577;28;20448;-73
2021/10/17 07:11:45;;;;;;;0.80;0.70;;;;;;;;;;5033407;28;20417;-74
2021/10/17 07:14:11;;;;;;;1.20;1.10;;;;;;;;;;5033258;28;20479;-73
2021/10/17 07:16:37;;;;;;;0.80;0.70;;;;;;;;;;5032570;28;20672;-74
2021/10/17 07:19:03;;;;;;;1.27;1.17;;;;;;;;;;5042547;28;20515;-73
2021/10/17 07:21:29;;;;;;;0.93;0.83;;;;;;;;;;5053177;28;20910;-74
2021/10/17 07:23:55;;;;;;;0.88;0.88;;;;;;;;;;5053202;28;20900;-74
2021/10/17 07:26:20;;;;;;;0.80;0.80;;;;;;;;;;5052213;28;20227;-73
2021/10/17 07:28:47;;;;;;;1.27;1.15;;;;;;;;;;5049050;28;20892;-72
2021/10/17 07:31:12;;;;;;;1.83;1.65;;;;;;;;;;5032500;28;20189;-73
2021/10/17 07:33:38;;;;;;;0.90;0.90;;;;;;;;;;5033097;28;20263;-74
2021/10/17 07:36:05;;;;;;;0.80;0.70;;;;;;;;;;5032004;28;20449;-74
2021/10/17 07:38:31;;;;;;;1.05;0.95;;;;;;;;;;5032950;28;21002;-74
2021/10/17 07:40:57;;;;;;;1.57;1.47;;;;;;;;;;5032683;28;20170;-74
2021/10/17 07:43:23;;;;;;;1.33;1.23;;;;;;;;;;5032996;28;20423;-74
2021/10/17 07:45:49;;;;;;;1.08;0.98;;;;;;;;;;5030161;28;20668;-74
2021/10/17 07:48:14;;;;;;;0.90;0.80;;;;;;;;;;5040581;28;20312;-74
2021/10/17 07:50:40;;;;;;;0.83;0.80;;;;;;;;;;5031152;28;20312;-74
2021/10/17 07:53:06;;;;;;;1.00;0.90;;;;;;;;;;5052482;28;20458;-73
2021/10/17 07:55:32;;;;;;;1.90;1.15;;;;;;;;;;5052277;28;20413;-73
2021/10/17 07:57:58;;;;;;;1.60;1.37;;;;;;;;;;5051746;28;20197;-73
2021/10/17 08:00:25;;;;;;;1.57;1.17;;;;;;;;;;5052378;28;20404;-72
2021/10/17 08:02:51;;;;;;;1.40;1.30;;;;;;;;;;5052374;28;20896;-74
2021/10/17 08:05:17;;;;;;;4.70;1.63;;;;;;;;;;5052246;28;20222;-74
2021/10/17 08:07:43;;;;;;;1.40;1.30;;;;;;;;;;5051387;28;20940;-73
2021/10/17 08:10:10;;;;;;;1.70;1.60;;;;;;;;;;5052077;28;20209;-73
2021/10/17 08:12:36;;;;;;;0.90;0.70;;;;;;;;;;5035009;28;20189;-74
2021/10/17 08:15:03;;;;;;;0.90;0.80;;;;;;;;;;5031843;28;20674;-74
2021/10/17 08:17:29;;;;;;;1.25;1.15;;;;;;;;;;5037952;28;20201;-73
2021/10/17 08:19:55;;;;;;;1.23;1.13;;;;;;;;;;5043397;28;20681;-74
2021/10/17 08:22:21;;;;;;;1.55;1.45;;;;;;;;;;5052154;28;20828;-73
2021/10/17 08:24:47;;;;;;;2.95;1.45;;;;;;;;;;5040622;28;20286;-74
2021/10/17 08:27:13;;;;;;;1.10;1.02;;;;;;;;;;5030527;28;20205;-73
2021/10/17 08:29:39;;;;;;;1.02;0.93;;;;;;;;;;5031918;28;20181;-74
2021/10/17 08:32:06;;;;;;;0.80;0.70;;;;;;;;;;5032335;28;20558;-73
2021/10/17 08:34:32;;;;;;;0.80;0.68;;;;;;;;;;5029964;28;20311;-73
2021/10/17 08:36:58;;;;;;;1.48;1.38;;;;;;;;;;5031212;28;20190;-73
2021/10/17 08:39:24;;;;;;;1.13;1.07;;;;;;;;;;5030604;28;20177;-73
2021/10/17 08:41:50;;;;;;;0.80;0.80;;;;;;;;;;5031674;28;20401;-73
2021/10/17 08:44:17;;;;;;;1.13;1.03;;;;;;;;;;5031855;28;20181;-74
2021/10/17 08:46:46;;;;;;;0.98;0.88;;;;;;;;;;5031277;28;20460;-73
2021/10/17 08:49:12;;;;;;;1.13;1.02;;;;;;;;;;5043460;28;20173;-72
2021/10/17 08:51:39;;;;;;;1.10;1.00;;;;;;;;;;5033603;28;20189;-73
2021/10/17 08:54:05;;;;;;;1.05;0.95;;;;;;;;;;5031152;28;20233;-73
2021/10/17 08:56:32;;;;;;;2.70;2.60;;;;;;;;;;5030454;28;20249;-73
2021/10/17 08:58:58;;;;;;;1.38;1.27;;;;;;;;;;5031734;28;20240;-73
2021/10/17 09:01:24;;;;;;;2.00;1.90;;;;;;;;;;5031666;28;20178;-73
2021/10/17 09:03:54;;;;;;;1.17;1.08;;;;;;;;;;5031598;28;20413;-73
2021/10/17 09:06:26;;;;;;;1.10;0.80;;;;;;;;;;5030887;28;20181;-73
2021/10/17 09:09:04;;;;;;;0.90;0.90;;;;;;;;;;5031712;28;20755;-73
2021/10/17 09:11:44;;;;;;;1.15;1.15;;;;;;;;;;5028729;28;20189;-73
2021/10/17 09:14:17;;;;;;;1.10;1.00;;;;;;;;;;5031634;28;20218;-73
2021/10/17 09:16:44;;;;;;;1.85;1.75;;;;;;;;;;5030685;28;20572;-73
2021/10/17 09:19:12;;;;;;;1.02;0.85;;;;;;;;;;5043121;28;20209;-73
2021/10/17 09:21:38;;;;;;;1.40;1.15;;;;;;;;;;5051290;28;20177;-73
2021/10/17 09:24:04;;;;;;;0.90;0.90;;;;;;;;;;5051333;28;20178;-73
2021/10/17 09:26:31;;;;;;;0.80;0.80;;;;;;;;;;5050311;28;20181;-73
2021/10/17 09:28:57;;;;;;;4.40;1.40;;;;;;;;;;5051209;28;20181;-73
2021/10/17 09:31:23;;;;;;;0.70;0.70;;;;;;;;;;5053948;28;20184;-72
2021/10/17 09:33:53;;;;;;;1.05;0.95;;;;;;;;;;5055101;28;20456;-73
2021/10/17 09:36:27;;;;;;;2.40;2.25;;;;;;;;;;5054278;28;20169;-73
2021/10/17 09:38:57;;;;;;;0.70;0.70;;;;;;;;;;4997785;28;20183;-73
2021/10/17 09:41:32;;;;;;;1.17;1.08;;;;;;;;;;5015211;28;20258;-73
2021/10/17 09:43:59;;;;;;;1.65;1.40;;;;;;;;;;5015261;28;20616;-72
2021/10/17 09:46:25;;;;;;;1.95;1.55;;;;;;;;;;5014942;28;20174;-73
2021/10/17 09:48:51;;;;;;;1.27;1.15;;;;;;;;;;5044485;28;20189;-72
2021/10/17 09:51:22;;;;;;;1.55;1.45;;;;;;;;;;5054979;28;20802;-72
2021/10/17 09:53:48;;;;;;;0.70;0.70;;;;;;;;;;5054841;28;20285;-73
2021/10/17 09:56:32;;;;;;;1.30;1.20;;;;;;;;;;5053713;28;20638;-73
2021/10/17 09:59:06;;;;;;;0.73;0.73;;;;;;;;;;5054743;28;20400;-73
2021/10/17 10:01:33;;;;;;;3.40;1.25;;;;;;;;;;5054701;28;20261;-72
2021/10/17 10:04:00;;;;;;;0.90;0.90;;;;;;;;;;5054604;28;20180;-72
2021/10/17 10:06:27;;;;;;;1.00;1.00;;;;;;;;;;5053748;28;20173;-73
2021/10/17 10:08:56;;;;;;;0.90;0.90;;;;;;;;;;5036348;28;20194;-72
2021/10/17 10:11:23;;;;;;;0.80;0.80;;;;;;;;;;5034312;28;20221;-72
2021/10/17 10:13:51;;;;;;;1.17;1.08;;;;;;;;;;5034574;28;20285;-72
2021/10/17 10:16:18;;;;;;;1.38;1.25;;;;;;;;;;5033707;28;20183;-73
2021/10/17 10:18:49;;;;;;;0.70;0.68;;;;;;;;;;5040229;28;20230;-73
2021/10/17 10:21:15;;;;;;;0.70;0.60;;;;;;;;;;5054114;28;20177;-72
2021/10/17 10:23:42;;;;;;;1.73;1.00;;;;;;;;;;5054381;28;20649;-72
2021/10/17 10:26:08;;;;;;;1.70;1.60;;;;;;;;;;5053187;28;20522;-73
2021/10/17 10:28:34;;;;;;;1.02;1.02;;;;;;;;;;5053907;28;20235;-73
2021/10/17 10:31:00;;;;;;;0.80;0.80;;;;;;;;;;5054137;28;20185;-73
2021/10/17 10:33:29;;;;;;;2.00;1.88;;;;;;;;;;5054063;28;20197;-73
2021/10/17 10:36:07;;;;;;;0.60;0.60;;;;;;;;;;5053376;28;20182;-73
2021/10/17 10:38:52;;;;;;;1.23;1.23;;;;;;;;;;5032755;28;20255;-73
2021/10/17 10:41:19;;;;;;;0.60;0.60;;;;;;;;;;5033314;28;20178;-73
2021/10/17 10:43:45;;;;;;;1.10;1.10;;;;;;;;;;5033507;28;20182;-73
2021/10/17 10:46:11;;;;;;;0.60;0.60;;;;;;;;;;5015783;28;20612;-73
2021/10/17 10:48:47;;;;;;;0.80;0.80;;;;;;;;;;5042117;28;20340;-72
2021/10/17 10:51:33;;;;;;;1.35;1.25;;;;;;;;;;5013983;28;20657;-73
2021/10/17 10:53:59;;;;;;;0.80;0.80;;;;;;;;;;5013912;28;20213;-73
2021/10/17 10:56:46;;;;;;;1.17;1.10;;;;;;;;;;5013118;28;20178;-74
2021/10/17 10:59:13;;;;;;;1.33;1.33;;;;;;;;;;5013664;28;20400;-73
2021/10/17 11:01:45;;;;;;;0.70;0.70;;;;;;;;;;5013886;28;20681;-73
2021/10/17 11:04:11;;;;;;;1.58;1.48;;;;;;;;;;5013840;28;20183;-74
2021/10/17 11:06:37;;;;;;;1.10;1.03;;;;;;;;;;5012883;28;20704;-72
2021/10/17 11:09:22;;;;;;;1.17;1.17;;;;;;;;;;5032797;28;20513;-74
2021/10/17 11:11:49;;;;;;;0.70;0.70;;;;;;;;;;5033245;28;20416;-72
2021/10/17 11:14:15;;;;;;;0.80;0.80;;;;;;;;;;5033253;28;20210;-72
2021/10/17 11:16:41;;;;;;;0.75;0.75;;;;;;;;;;5032690;28;20557;-72
2021/10/17 11:19:07;;;;;;;0.70;0.70;;;;;;;;;;5044853;28;20236;-72
2021/10/17 11:21:33;;;;;;;3.25;1.00;;;;;;;;;;5053446;28;20244;-72
2021/10/17 11:23:59;;;;;;;0.68;0.68;;;;;;;;;;5053178;28;20177;-72
2021/10/17 11:26:25;;;;;;;1.23;1.13;;;;;;;;;;5034322;28;20192;-73
2021/10/17 11:28:52;;;;;;;1.00;1.00;;;;;;;;;;5053320;28;20177;-73
2021/10/17 11:31:24;;;;;;;1.13;1.02;;;;;;;;;;5053332;28;20411;-73
2021/10/17 11:33:51;;;;;;;0.60;0.60;;;;;;;;;;5053400;28;20246;-74
2021/10/17 11:36:18;;;;;;;0.73;0.73;;;;;;;;;;5052087;28;20183;-72
2021/10/17 11:38:44;;;;;;;1.40;1.30;;;;;;;;;;5036349;28;20213;-73
2021/10/17 11:41:12;;;;;;;0.93;0.93;;;;;;;;;;5014931;28;20181;-74
2021/10/17 11:43:42;;;;;;;0.60;0.60;;;;;;;;;;5032832;28;20179;-74
2021/10/17 11:46:12;;;;;;;0.60;0.60;;;;;;;;;;5032064;28;20584;-74
2021/10/17 11:48:39;;;;;;;0.90;0.90;;;;;;;;;;5040500;28;20233;-74
2021/10/17 11:51:06;;;;;;;1.15;1.00;;;;;;;;;;5052572;28;20209;-74
2021/10/17 11:53:32;;;;;;;0.60;0.60;;;;;;;;;;5052060;28;20197;-74
2021/10/17 11:55:59;;;;;;;0.80;0.80;;;;;;;;;;5051362;28;20180;-73
2021/10/17 11:58:26;;;;;;;1.30;1.20;;;;;;;;;;5052389;28;20198;-74
2021/10/17 12:01:09;;;;;;;0.68;0.68;;;;;;;;;;5052612;28;20260;-73
2021/10/17 12:03:35;;;;;;;0.60;0.60;;;;;;;;;;5052441;28;20645;-74
2021/10/17 12:06:04;;;;;;;0.82;0.82;;;;;;;;;;5051636;28;20266;-74
2021/10/17 12:08:31;;;;;;;0.70;0.70;;;;;;;;;;5032655;28;20213;-73
2021/10/17 12:11:02;;;;;;;0.60;0.60;;;;;;;;;;5032017;28;20187;-74
2021/10/17 12:13:29;;;;;;;0.63;0.63;;;;;;;;;;5032437;28;20242;-73
2021/10/17 12:16:04;;;;;;;0.80;0.80;;;;;;;;;;5031447;28;20171;-73
2021/10/17 12:18:31;;;;;;;0.70;0.70;;;;;;;;;;5040305;28;20204;-73
2021/10/17 12:20:57;;;;;;;1.00;0.90;;;;;;;;;;5050544;28;20611;-74
2021/10/17 12:23:23;;;;;;;0.90;0.90;;;;;;;;;;5052320;28;20551;-73
2021/10/17 12:25:49;;;;;;;1.17;1.17;;;;;;;;;;5050994;28;20223;-74
2021/10/17 12:28:19;;;;;;;1.20;1.20;;;;;;;;;;5051789;28;20205;-73
2021/10/17 12:30:52;;;;;;;0.80;0.80;;;;;;;;;;5051918;28;20404;-73
2021/10/17 12:33:33;;;;;;;1.00;0.88;;;;;;;;;;5051800;28;20296;-74
2021/10/17 12:36:00;;;;;;;0.60;0.60;;;;;;;;;;5051214;28;20180;-73
2021/10/17 12:38:30;;;;;;;2.63;0.77;;;;;;;;;;5035293;28;20713;-74
2021/10/17 12:40:57;;;;;;;0.80;0.80;;;;;;;;;;5014606;28;20684;-74
2021/10/17 12:43:24;;;;;;;1.00;0.90;;;;;;;;;;5012214;28;20273;-73
2021/10/17 12:45:51;;;;;;;1.45;1.35;;;;;;;;;;5011404;28;20179;-72
2021/10/17 12:48:21;;;;;;;1.35;1.25;;;;;;;;;;5036040;28;20228;-74
2021/10/17 12:50:47;;;;;;;0.88;0.70;;;;;;;;;;5049381;28;20233;-74
2021/10/17 12:53:13;;;;;;;1.13;1.13;;;;;;;;;;5051551;28;20225;-73
2021/10/17 12:55:40;;;;;;;2.93;0.80;;;;;;;;;;5037145;28;20433;-73
2021/10/17 12:58:10;;;;;;;1.88;1.02;;;;;;;;;;5030989;28;20428;-73
2021/10/17 13:00:36;;;;;;;2.17;1.80;;;;;;;;;;5031768;28;20194;-73
2021/10/17 13:03:34;;;;;;;0.70;0.70;;;;;;;;;;5013864;28;20174;-73
2021/10/17 13:06:05;;;;;;;0.60;0.60;;;;;;;;;;4976919;28;20455;-73
2021/10/17 13:08:31;;;;;;;1.00;0.90;;;;;;;;;;5034980;28;20198;-74
2021/10/17 13:11:07;;;;;;;0.73;0.73;;;;;;;;;;5035601;28;20836;-74
2021/10/17 13:13:33;;;;;;;0.88;0.88;;;;;;;;;;5035633;28;20452;-74
2021/10/17 13:15:59;;;;;;;1.08;0.70;;;;;;;;;;5034755;28;20674;-73
2021/10/17 13:18:25;;;;;;;0.60;0.60;;;;;;;;;;5043682;28;20206;-74
2021/10/17 13:20:51;;;;;;;0.87;0.80;;;;;;;;;;5048557;28;20513;-73
2021/10/17 13:23:20;;;;;;;0.70;0.70;;;;;;;;;;5035296;28;20786;-73
2021/10/17 13:25:48;;;;;;;1.50;1.50;;;;;;;;;;5034930;28;20201;-74
2021/10/17 13:28:14;;;;;;;0.60;0.60;;;;;;;;;;5035269;28;20201;-74
2021/10/17 13:30:40;;;;;;;1.08;1.08;;;;;;;;;;5035090;28;20170;-73
2021/10/17 13:33:06;;;;;;;0.60;0.60;;;;;;;;;;5035326;28;20186;-73
2021/10/17 13:35:33;;;;;;;0.70;0.70;;;;;;;;;;5035337;28;20408;-73
2021/10/17 13:38:00;;;;;;;0.70;0.70;;;;;;;;;;5034788;28;20633;-73
2021/10/17 13:40:26;;;;;;;0.60;0.60;;;;;;;;;;5035257;28;20175;-73
2021/10/17 13:42:53;;;;;;;0.60;0.60;;;;;;;;;;5032510;28;20190;-74
2021/10/17 13:45:19;;;;;;;0.80;0.80;;;;;;;;;;5035000;28;20187;-72
2021/10/17 13:47:45;;;;;;;0.60;0.60;;;;;;;;;;5042025;28;20217;-72
2021/10/17 13:50:12;;;;;;;1.02;1.02;;;;;;;;;;5047484;28;20174;-74
2021/10/17 13:52:38;;;;;;;0.60;0.60;;;;;;;;;;5054687;28;20231;-74
2021/10/17 13:55:04;;;;;;;0.60;0.60;;;;;;;;;;5054966;28;20205;-74
2021/10/17 13:57:30;;;;;;;0.60;0.60;;;;;;;;;;5053688;28;20438;-74
2021/10/17 13:59:56;;;;;;;1.25;1.15;;;;;;;;;;5047861;28;20189;-73
2021/10/17 14:02:23;;;;;;;0.60;0.60;;;;;;;;;;5034823;28;20191;-73
2021/10/17 14:04:49;;;;;;;0.65;0.65;;;;;;;;;;5034780;28;20178;-74
2021/10/17 14:07:15;;;;;;;0.70;0.70;;;;;;;;;;5033670;28;20552;-73
2021/10/17 14:09:41;;;;;;;0.70;0.70;;;;;;;;;;5034875;28;20412;-73
2021/10/17 14:12:07;;;;;;;2.00;1.80;;;;;;;;;;5034445;28;20170;-73
2021/10/17 14:14:33;;;;;;;0.60;0.60;;;;;;;;;;5034675;28;20209;-73
2021/10/17 14:16:59;;;;;;;1.20;1.00;;;;;;;;;;5033666;28;20573;-73
2021/10/17 14:19:25;;;;;;;0.73;0.73;;;;;;;;;;5045983;28;20411;-73
2021/10/17 14:21:51;;;;;;;1.08;1.08;;;;;;;;;;5054240;28;20490;-74
2021/10/17 14:24:17;;;;;;;0.80;0.75;;;;;;;;;;5054326;28;20252;-74
2021/10/17 14:26:44;;;;;;;0.60;0.60;;;;;;;;;;5040822;28;20209;-74
2021/10/17 14:29:10;;;;;;;0.70;0.70;;;;;;;;;;5023755;28;20218;-73
2021/10/17 14:31:36;;;;;;;0.85;0.85;;;;;;;;;;5014575;28;20540;-72
2021/10/17 14:34:05;;;;;;;0.70;0.70;;;;;;;;;;5014239;28;20253;-73
2021/10/17 14:36:32;;;;;;;0.80;0.77;;;;;;;;;;5013453;28;20864;-74
2021/10/17 14:38:58;;;;;;;0.80;0.70;;;;;;;;;;5014286;28;20225;-74
2021/10/17 14:41:24;;;;;;;0.70;0.70;;;;;;;;;;5014562;28;20183;-74
2021/10/17 14:43:52;;;;;;;0.70;0.63;;;;;;;;;;5033370;28;20404;-73
2021/10/17 14:46:18;;;;;;;0.60;0.60;;;;;;;;;;5033295;28;20190;-73
2021/10/17 14:48:44;;;;;;;0.80;0.80;;;;;;;;;;5039323;28;20221;-74
2021/10/17 14:51:10;;;;;;;0.60;0.60;;;;;;;;;;5053594;28;20216;-74
2021/10/17 14:53:36;;;;;;;1.70;1.60;;;;;;;;;;5053745;28;20455;-73
2021/10/17 14:56:02;;;;;;;0.60;0.60;;;;;;;;;;5052652;28;20181;-74
2021/10/17 14:58:30;;;;;;;0.60;0.60;;;;;;;;;;5053662;28;20316;-74
2021/10/17 15:00:56;;;;;;;0.90;0.90;;;;;;;;;;5053602;28;20416;-73